createdAt,value
2023-05-13T00:00:15.106Z,0
2023-05-13T00:01:15.115Z,0
2023-05-13T00:02:15.143Z,0
2023-05-13T00:03:15.129Z,0
2023-05-13T00:04:15.099Z,0
2023-05-13T00:05:15.159Z,0
2023-05-13T00:06:15.128Z,0
2023-05-13T00:07:15.110Z,0
2023-05-13T00:08:15.108Z,0
2023-05-13T00:09:15.102Z,0
2023-05-13T00:10:15.109Z,0
2023-05-13T00:11:15.111Z,0
2023-05-13T00:12:15.116Z,0
2023-05-13T00:13:15.128Z,0
2023-05-13T00:14:15.114Z,0
2023-05-13T00:15:15.115Z,0
2023-05-13T00:16:15.134Z,0
2023-05-13T00:17:15.125Z,0
2023-05-13T00:18:15.120Z,0
2023-05-13T00:19:15.158Z,0
2023-05-13T00:20:15.120Z,0
2023-05-13T00:21:15.155Z,0
2023-05-13T00:22:15.124Z,0
2023-05-13T00:23:15.125Z,0
2023-05-13T00:24:15.126Z,0
2023-05-13T00:25:15.127Z,0
2023-05-13T00:26:15.127Z,0
2023-05-13T00:27:15.125Z,0
2023-05-13T00:28:15.167Z,0
2023-05-13T00:29:15.125Z,0
2023-05-13T00:30:15.132Z,0
2023-05-13T00:31:15.187Z,0
2023-05-13T00:32:15.132Z,0
2023-05-13T00:33:15.129Z,0
2023-05-13T00:34:15.131Z,0
2023-05-13T00:35:15.128Z,0
2023-05-13T00:36:15.132Z,0
2023-05-13T00:37:15.168Z,0
2023-05-13T00:38:15.140Z,0
2023-05-13T00:39:15.146Z,0
2023-05-13T00:40:15.140Z,0
2023-05-13T00:41:15.142Z,0
2023-05-13T00:42:15.145Z,0
2023-05-13T00:43:15.142Z,0
2023-05-13T00:44:15.143Z,0
2023-05-13T00:45:15.154Z,0
2023-05-13T00:46:15.161Z,0
2023-05-13T00:47:15.174Z,0
2023-05-13T00:48:15.149Z,0
2023-05-13T00:49:15.158Z,0
2023-05-13T00:50:15.150Z,0
2023-05-13T00:51:15.152Z,0
2023-05-13T00:52:15.154Z,0
2023-05-13T00:53:15.181Z,0
2023-05-13T00:54:15.157Z,0
2023-05-13T00:55:15.157Z,0
2023-05-13T00:56:15.158Z,0
2023-05-13T00:57:15.164Z,0
2023-05-13T00:58:15.178Z,0
2023-05-13T00:59:15.165Z,0
2023-05-13T01:00:15.169Z,0
2023-05-13T01:01:15.220Z,0
2023-05-13T01:02:15.202Z,0
2023-05-13T01:03:15.230Z,0
2023-05-13T01:04:15.165Z,0
2023-05-13T01:05:15.188Z,0
2023-05-13T01:06:15.164Z,0
2023-05-13T01:07:15.166Z,0
2023-05-13T01:08:15.177Z,0
2023-05-13T01:09:15.194Z,0
2023-05-13T01:10:15.175Z,0
2023-05-13T01:11:15.168Z,0
2023-05-13T01:12:15.170Z,0
2023-05-13T01:13:15.174Z,0
2023-05-13T01:14:15.174Z,0
2023-05-13T01:15:15.188Z,0
2023-05-13T01:16:15.175Z,0
2023-05-13T01:17:15.192Z,0
2023-05-13T01:18:15.186Z,0
2023-05-13T01:19:15.245Z,0
2023-05-13T01:20:15.179Z,0
2023-05-13T01:21:15.181Z,0
2023-05-13T01:22:15.189Z,0
2023-05-13T01:23:15.184Z,0
2023-05-13T01:24:15.218Z,0
2023-05-13T01:25:15.212Z,0
2023-05-13T01:26:15.186Z,0
2023-05-13T01:27:15.183Z,0
2023-05-13T01:28:15.187Z,0
2023-05-13T01:29:15.189Z,0
2023-05-13T01:30:15.187Z,0
2023-05-13T01:31:15.236Z,0
2023-05-13T01:32:15.184Z,0
2023-05-13T01:33:15.189Z,0
2023-05-13T01:34:15.195Z,0
2023-05-13T01:35:15.193Z,0
2023-05-13T01:36:15.190Z,0
2023-05-13T01:37:15.195Z,0
2023-05-13T01:38:15.194Z,0
2023-05-13T01:39:15.196Z,0
2023-05-13T01:40:30.858Z,0
2023-05-13T01:41:15.223Z,0
2023-05-13T01:42:15.199Z,0
2023-05-13T01:43:15.202Z,0
2023-05-13T01:44:15.205Z,0
2023-05-13T01:45:15.201Z,0
2023-05-13T01:46:15.231Z,0
2023-05-13T01:47:15.206Z,0
2023-05-13T01:48:15.206Z,0
2023-05-13T01:49:15.205Z,0
2023-05-13T01:50:15.209Z,0
2023-05-13T01:51:15.210Z,0
2023-05-13T01:52:15.214Z,0
2023-05-13T01:53:15.221Z,0
2023-05-13T01:54:15.211Z,0
2023-05-13T01:55:15.215Z,0
2023-05-13T01:56:15.214Z,0
2023-05-13T01:57:15.252Z,0
2023-05-13T01:58:15.213Z,0
2023-05-13T01:59:15.227Z,0
2023-05-13T02:00:15.224Z,0
2023-05-13T02:01:15.288Z,0
2023-05-13T02:02:15.252Z,0
2023-05-13T02:03:15.272Z,0
2023-05-13T02:04:15.232Z,0
2023-05-13T02:05:15.225Z,0
2023-05-13T02:06:15.226Z,0
2023-05-13T02:07:15.221Z,0
2023-05-13T02:08:15.244Z,0
2023-05-13T02:09:15.225Z,0
2023-05-13T02:10:15.228Z,0
2023-05-13T02:11:15.230Z,0
2023-05-13T02:12:15.241Z,0
2023-05-13T02:13:15.271Z,0
2023-05-13T02:14:15.230Z,0
2023-05-13T02:15:15.241Z,0
2023-05-13T02:16:15.255Z,0
2023-05-13T02:17:15.241Z,0
2023-05-13T02:18:15.244Z,0
2023-05-13T02:19:15.237Z,0
2023-05-13T02:20:15.250Z,0
2023-05-13T02:21:15.239Z,0
2023-05-13T02:22:15.242Z,0
2023-05-13T02:23:15.245Z,0
2023-05-13T02:24:15.255Z,0
2023-05-13T02:25:15.246Z,0
2023-05-13T02:26:15.245Z,0
2023-05-13T02:27:15.247Z,0
2023-05-13T02:28:15.245Z,0
2023-05-13T02:29:15.283Z,0
2023-05-13T02:30:15.244Z,0
2023-05-13T02:31:15.249Z,0
2023-05-13T02:32:15.266Z,0
2023-05-13T02:33:15.263Z,0
2023-05-13T02:34:15.251Z,0
2023-05-13T02:35:15.252Z,0
2023-05-13T02:36:15.263Z,0
2023-05-13T02:37:15.256Z,0
2023-05-13T02:38:15.262Z,0
2023-05-13T02:39:15.257Z,0
2023-05-13T02:40:15.265Z,0
2023-05-13T02:41:15.260Z,0
2023-05-13T02:42:15.261Z,0
2023-05-13T02:43:15.271Z,0
2023-05-13T02:44:15.265Z,0
2023-05-13T02:45:15.287Z,0
2023-05-13T02:46:15.286Z,0
2023-05-13T02:47:15.275Z,0
2023-05-13T02:48:15.266Z,0
2023-05-13T02:49:15.271Z,0
2023-05-13T02:50:15.268Z,0
2023-05-13T02:51:15.269Z,0
2023-05-13T02:52:15.277Z,0
2023-05-13T02:53:15.274Z,0
2023-05-13T02:54:15.275Z,0
2023-05-13T02:55:15.320Z,0
2023-05-13T02:56:15.275Z,0
2023-05-13T02:57:15.285Z,0
2023-05-13T02:58:15.304Z,0
2023-05-13T02:59:15.281Z,0
2023-05-13T03:00:15.282Z,0
2023-05-13T03:01:15.353Z,0
2023-05-13T03:02:15.300Z,0
2023-05-13T03:03:15.325Z,0
2023-05-13T03:04:15.283Z,0
2023-05-13T03:05:15.282Z,0
2023-05-13T03:06:15.286Z,0
2023-05-13T03:07:15.289Z,0
2023-05-13T03:08:15.308Z,0
2023-05-13T03:09:15.292Z,0
2023-05-13T03:10:15.291Z,0
2023-05-13T03:11:15.288Z,0
2023-05-13T03:12:15.288Z,0
2023-05-13T03:13:15.293Z,0
2023-05-13T03:14:15.300Z,1
2023-05-13T03:15:15.294Z,1
2023-05-13T03:16:15.367Z,1
2023-05-13T03:17:15.318Z,1
2023-05-13T03:18:15.300Z,1
2023-05-13T03:19:15.373Z,2
2023-05-13T03:20:15.299Z,2
2023-05-13T03:21:15.303Z,2
2023-05-13T03:22:15.299Z,2
2023-05-13T03:23:15.298Z,2
2023-05-13T03:24:15.304Z,5
2023-05-13T03:25:15.311Z,5
2023-05-13T03:26:15.304Z,5
2023-05-13T03:27:15.308Z,5
2023-05-13T03:28:15.300Z,5
2023-05-13T03:29:15.302Z,9
2023-05-13T03:30:15.308Z,9
2023-05-13T03:31:15.337Z,9
2023-05-13T03:32:15.309Z,9
2023-05-13T03:33:15.333Z,9
2023-05-13T03:34:15.310Z,17
2023-05-13T03:35:15.307Z,17
2023-05-13T03:36:15.304Z,17
2023-05-13T03:37:15.318Z,17
2023-05-13T03:38:15.309Z,17
2023-05-13T03:39:15.310Z,30
2023-05-13T03:40:15.312Z,30
2023-05-13T03:41:15.314Z,30
2023-05-13T03:42:15.312Z,30
2023-05-13T03:43:15.313Z,30
2023-05-13T03:44:15.313Z,52
2023-05-13T03:45:15.316Z,52
2023-05-13T03:46:15.315Z,52
2023-05-13T03:47:15.317Z,52
2023-05-13T03:48:15.332Z,52
2023-05-13T03:49:15.340Z,75
2023-05-13T03:50:15.320Z,75
2023-05-13T03:51:15.327Z,75
2023-05-13T03:52:15.320Z,75
2023-05-13T03:53:15.322Z,75
2023-05-13T03:54:15.340Z,104
2023-05-13T03:55:15.367Z,104
2023-05-13T03:56:15.330Z,104
2023-05-13T03:57:15.325Z,104
2023-05-13T03:58:15.325Z,104
2023-05-13T03:59:15.326Z,140
2023-05-13T04:00:15.331Z,140
2023-05-13T04:01:15.326Z,140
2023-05-13T04:02:15.394Z,140
2023-05-13T04:03:15.399Z,140
2023-05-13T04:04:15.335Z,140
2023-05-13T04:05:15.401Z,182
2023-05-13T04:06:15.333Z,182
2023-05-13T04:07:15.332Z,182
2023-05-13T04:08:15.341Z,182
2023-05-13T04:09:15.335Z,182
2023-05-13T04:10:15.882Z,232
2023-05-13T04:11:15.340Z,232
2023-05-13T04:12:15.345Z,232
2023-05-13T04:13:15.345Z,232
2023-05-13T04:14:15.341Z,232
2023-05-13T04:15:15.340Z,290
2023-05-13T04:16:15.381Z,290
2023-05-13T04:17:15.394Z,290
2023-05-13T04:18:15.347Z,290
2023-05-13T04:19:15.388Z,290
2023-05-13T04:20:15.353Z,337
2023-05-13T04:21:15.370Z,337
2023-05-13T04:22:15.346Z,337
2023-05-13T04:23:15.348Z,337
2023-05-13T04:24:15.347Z,337
2023-05-13T04:25:15.347Z,385
2023-05-13T04:26:15.347Z,385
2023-05-13T04:27:15.348Z,385
2023-05-13T04:28:15.346Z,385
2023-05-13T04:29:15.342Z,385
2023-05-13T04:30:15.354Z,429
2023-05-13T04:31:15.440Z,429
2023-05-13T04:32:15.356Z,429
2023-05-13T04:33:15.399Z,429
2023-05-13T04:34:15.356Z,429
2023-05-13T04:35:15.347Z,487
2023-05-13T04:36:15.394Z,487
2023-05-13T04:37:15.376Z,487
2023-05-13T04:38:15.354Z,487
2023-05-13T04:39:15.349Z,487
2023-05-13T04:40:15.347Z,551
2023-05-13T04:41:15.359Z,551
2023-05-13T04:42:15.350Z,551
2023-05-13T04:43:15.350Z,551
2023-05-13T04:44:15.353Z,551
2023-05-13T04:45:15.355Z,618
2023-05-13T04:46:15.378Z,618
2023-05-13T04:47:15.356Z,618
2023-05-13T04:48:15.348Z,618
2023-05-13T04:49:15.351Z,618
2023-05-13T04:50:15.347Z,723
2023-05-13T04:51:15.350Z,723
2023-05-13T04:52:15.353Z,723
2023-05-13T04:53:15.386Z,723
2023-05-13T04:54:15.349Z,723
2023-05-13T04:55:15.371Z,769
2023-05-13T04:56:15.347Z,769
2023-05-13T04:57:15.354Z,769
2023-05-13T04:58:15.365Z,769
2023-05-13T04:59:15.372Z,769
2023-05-13T05:00:15.350Z,823
2023-05-13T05:01:15.399Z,823
2023-05-13T05:02:15.356Z,823
2023-05-13T05:03:15.351Z,823
2023-05-13T05:04:15.465Z,823
2023-05-13T05:05:17.575Z,858
2023-05-13T05:06:15.352Z,858
2023-05-13T05:07:15.368Z,858
2023-05-13T05:08:15.393Z,858
2023-05-13T05:09:15.373Z,858
2023-05-13T05:10:15.373Z,965
2023-05-13T05:11:15.369Z,965
2023-05-13T05:12:15.354Z,960
2023-05-13T05:13:15.353Z,1013
2023-05-13T05:14:15.353Z,1009
2023-05-13T05:15:15.389Z,1024
2023-05-13T05:16:15.356Z,1075
2023-05-13T05:17:15.380Z,1115
2023-05-13T05:18:15.389Z,1115
2023-05-13T05:19:15.369Z,1158
2023-05-13T05:20:15.358Z,1215
2023-05-13T05:21:15.362Z,1187
2023-05-13T05:22:15.363Z,1200
2023-05-13T05:23:15.361Z,1200
2023-05-13T05:24:15.360Z,1200
2023-05-13T05:25:15.386Z,1201
2023-05-13T05:26:15.371Z,1210
2023-05-13T05:27:15.356Z,1233
2023-05-13T05:28:15.360Z,1233
2023-05-13T05:29:15.358Z,1233
2023-05-13T05:30:15.363Z,1233
2023-05-13T05:31:15.381Z,1321
2023-05-13T05:32:15.361Z,1321
2023-05-13T05:33:15.369Z,1321
2023-05-13T05:34:15.368Z,1321
2023-05-13T05:35:15.361Z,1321
2023-05-13T05:36:15.364Z,1364
2023-05-13T05:37:15.366Z,1371
2023-05-13T05:38:15.362Z,1364
2023-05-13T05:39:15.362Z,1364
2023-05-13T05:40:15.362Z,1364
2023-05-13T05:41:15.396Z,1326
2023-05-13T05:42:15.365Z,1326
2023-05-13T05:43:15.364Z,1326
2023-05-13T05:44:15.365Z,1326
2023-05-13T05:45:15.365Z,1326
2023-05-13T05:46:15.382Z,1361
2023-05-13T05:47:15.367Z,1361
2023-05-13T05:48:15.363Z,1361
2023-05-13T05:49:15.364Z,1361
2023-05-13T05:50:15.373Z,1361
2023-05-13T05:51:15.367Z,1320
2023-05-13T05:52:15.370Z,1320
2023-05-13T05:53:15.372Z,1320
2023-05-13T05:54:15.373Z,1432
2023-05-13T05:55:15.364Z,1432
2023-05-13T05:56:15.368Z,1432
2023-05-13T05:57:15.398Z,1349
2023-05-13T05:58:15.370Z,1671
2023-05-13T05:59:15.372Z,1300
2023-05-13T06:00:15.380Z,1661
2023-05-13T06:01:15.374Z,1765
2023-05-13T06:02:15.385Z,1469
2023-05-13T06:03:15.624Z,1898
2023-05-13T06:04:15.417Z,2032
2023-05-13T06:05:15.382Z,2175
2023-05-13T06:06:15.379Z,2362
2023-05-13T06:07:15.404Z,2514
2023-05-13T06:08:15.383Z,2274
2023-05-13T06:09:15.406Z,1952
2023-05-13T06:10:15.384Z,1978
2023-05-13T06:11:15.385Z,1957
2023-05-13T06:12:15.384Z,2012
2023-05-13T06:13:15.411Z,2048
2023-05-13T06:14:15.387Z,2495
2023-05-13T06:15:15.401Z,2558
2023-05-13T06:16:15.434Z,2788
2023-05-13T06:17:15.392Z,2620
2023-05-13T06:18:15.391Z,2502
2023-05-13T06:19:15.427Z,2735
2023-05-13T06:20:15.390Z,3195
2023-05-13T06:21:15.388Z,2609
2023-05-13T06:22:15.393Z,2657
2023-05-13T06:23:15.396Z,2524
2023-05-13T06:24:15.400Z,2796
2023-05-13T06:25:15.398Z,3588
2023-05-13T06:26:15.411Z,3345
2023-05-13T06:27:15.398Z,4381
2023-05-13T06:28:15.409Z,4606
2023-05-13T06:29:15.428Z,4606
2023-05-13T06:30:15.399Z,4606
2023-05-13T06:31:15.423Z,4606
2023-05-13T06:32:15.405Z,4606
2023-05-13T06:33:15.412Z,4976
2023-05-13T06:34:15.399Z,4976
2023-05-13T06:35:15.405Z,4976
2023-05-13T06:36:15.410Z,4976
2023-05-13T06:37:15.425Z,5390
2023-05-13T06:38:15.407Z,5045
2023-05-13T06:39:15.426Z,5045
2023-05-13T06:40:15.415Z,5045
2023-05-13T06:41:15.409Z,5045
2023-05-13T06:42:15.413Z,3716
2023-05-13T06:43:15.410Z,3716
2023-05-13T06:44:15.412Z,3716
2023-05-13T06:45:15.502Z,3716
2023-05-13T06:46:15.415Z,3716
2023-05-13T06:47:15.453Z,5189
2023-05-13T06:48:15.415Z,5189
2023-05-13T06:49:15.415Z,5189
2023-05-13T06:50:15.416Z,5189
2023-05-13T06:51:15.419Z,5189
2023-05-13T06:52:15.418Z,3877
2023-05-13T06:53:15.417Z,3877
2023-05-13T06:54:15.417Z,3877
2023-05-13T06:55:15.420Z,3877
2023-05-13T06:56:15.423Z,3877
2023-05-13T06:57:15.423Z,2917
2023-05-13T06:58:15.434Z,2917
2023-05-13T06:59:15.437Z,3060
2023-05-13T07:00:15.421Z,2518
2023-05-13T07:01:15.473Z,2597
2023-05-13T07:02:15.432Z,2597
2023-05-13T07:03:15.464Z,2597
2023-05-13T07:04:15.511Z,3153
2023-05-13T07:05:15.429Z,2604
2023-05-13T07:06:15.434Z,2604
2023-05-13T07:07:15.433Z,2604
2023-05-13T07:08:15.438Z,2683
2023-05-13T07:09:15.434Z,2683
2023-05-13T07:10:15.443Z,3686
2023-05-13T07:11:15.441Z,3686
2023-05-13T07:12:15.440Z,5082
2023-05-13T07:13:15.444Z,5214
2023-05-13T07:14:15.445Z,7982
2023-05-13T07:15:15.444Z,8030
2023-05-13T07:16:15.448Z,8030
2023-05-13T07:17:15.496Z,4277
2023-05-13T07:18:15.460Z,5007
2023-05-13T07:19:15.499Z,6334
2023-05-13T07:20:15.451Z,5263
2023-05-13T07:21:15.452Z,5263
2023-05-13T07:22:15.456Z,5263
2023-05-13T07:23:15.456Z,5263
2023-05-13T07:24:15.457Z,5263
2023-05-13T07:25:15.461Z,4066
2023-05-13T07:26:15.479Z,4066
2023-05-13T07:27:15.463Z,3223
2023-05-13T07:28:15.467Z,3005
2023-05-13T07:29:15.464Z,3005
2023-05-13T07:30:15.476Z,3005
2023-05-13T07:31:15.486Z,6384
2023-05-13T07:32:15.466Z,6492
2023-05-13T07:33:15.498Z,6492
2023-05-13T07:34:15.471Z,4051
2023-05-13T07:35:15.464Z,4051
2023-05-13T07:36:15.473Z,4051
2023-05-13T07:37:15.469Z,4595
2023-05-13T07:38:15.501Z,4595
2023-05-13T07:39:15.478Z,6086
2023-05-13T07:40:15.473Z,6086
2023-05-13T07:41:15.478Z,7582
2023-05-13T07:42:15.479Z,7362
2023-05-13T07:43:15.482Z,7362
2023-05-13T07:44:15.486Z,7362
2023-05-13T07:45:15.480Z,7362
2023-05-13T07:46:15.486Z,7362
2023-05-13T07:47:15.563Z,7349
2023-05-13T07:48:15.511Z,7349
2023-05-13T07:49:15.511Z,7129
2023-05-13T07:50:15.487Z,7129
2023-05-13T07:51:15.486Z,7129
2023-05-13T07:52:15.499Z,7129
2023-05-13T07:53:16.617Z,2941
2023-05-13T07:54:15.494Z,2941
2023-05-13T07:55:15.498Z,2246
2023-05-13T07:56:15.495Z,4051
2023-05-13T07:57:15.499Z,3522
2023-05-13T07:58:15.499Z,3016
2023-05-13T07:59:15.498Z,5156
2023-05-13T08:00:15.511Z,4707
2023-05-13T08:01:15.498Z,4707
2023-05-13T08:02:15.502Z,6772
2023-05-13T08:03:15.588Z,6767
2023-05-13T08:04:15.788Z,6676
2023-05-13T08:05:15.529Z,6676
2023-05-13T08:06:15.504Z,6676
2023-05-13T08:07:15.504Z,6676
2023-05-13T08:08:15.508Z,6023
2023-05-13T08:09:15.509Z,6584
2023-05-13T08:10:15.520Z,6446
2023-05-13T08:11:15.516Z,6337
2023-05-13T08:12:15.522Z,6328
2023-05-13T08:13:15.523Z,6307
2023-05-13T08:14:15.509Z,6333
2023-05-13T08:15:15.529Z,6307
2023-05-13T08:16:15.537Z,6311
2023-05-13T08:17:15.519Z,6311
2023-05-13T08:18:15.521Z,6311
2023-05-13T08:19:15.567Z,6381
2023-05-13T08:20:15.530Z,6381
2023-05-13T08:21:15.561Z,6381
2023-05-13T08:22:15.529Z,6433
2023-05-13T08:23:15.526Z,6406
2023-05-13T08:24:15.526Z,6408
2023-05-13T08:25:15.527Z,6417
2023-05-13T08:26:15.524Z,6369
2023-05-13T08:27:15.519Z,6298
2023-05-13T08:28:15.524Z,6268
2023-05-13T08:29:15.541Z,6260
2023-05-13T08:30:15.534Z,6128
2023-05-13T08:31:15.548Z,6233
2023-05-13T08:32:15.549Z,6233
2023-05-13T08:33:15.527Z,6249
2023-05-13T08:34:15.526Z,6209
2023-05-13T08:35:15.530Z,6209
2023-05-13T08:36:15.531Z,6114
2023-05-13T08:37:15.556Z,6111
2023-05-13T08:38:15.529Z,6100
2023-05-13T08:39:15.526Z,6132
2023-05-13T08:40:15.531Z,6090
2023-05-13T08:41:15.551Z,6124
2023-05-13T08:42:15.530Z,6126
2023-05-13T08:43:15.546Z,6131
2023-05-13T08:44:15.534Z,6143
2023-05-13T08:45:15.543Z,6143
2023-05-13T08:46:15.562Z,6143
2023-05-13T08:47:15.537Z,6202
2023-05-13T08:48:15.607Z,6202
2023-05-13T08:49:15.541Z,6219
2023-05-13T08:50:15.540Z,6253
2023-05-13T08:51:15.534Z,6259
2023-05-13T08:52:15.551Z,6259
2023-05-13T08:53:15.574Z,6259
2023-05-13T08:54:15.542Z,6162
2023-05-13T08:55:15.544Z,6126
2023-05-13T08:56:15.545Z,6128
2023-05-13T08:57:15.545Z,6097
2023-05-13T08:58:15.550Z,6097
2023-05-13T08:59:15.550Z,6111
2023-05-13T09:00:15.564Z,6108
2023-05-13T09:01:15.580Z,6126
2023-05-13T09:02:15.552Z,6155
2023-05-13T09:03:15.556Z,6149
2023-05-13T09:04:15.554Z,6139
2023-05-13T09:05:15.570Z,6182
2023-05-13T09:06:15.553Z,6166
2023-05-13T09:07:15.557Z,6150
2023-05-13T09:08:15.560Z,6159
2023-05-13T09:09:16.035Z,6100
2023-05-13T09:10:15.560Z,6076
2023-05-13T09:11:15.559Z,6046
2023-05-13T09:12:15.561Z,6042
2023-05-13T09:13:15.558Z,6045
2023-05-13T09:14:15.559Z,6053
2023-05-13T09:15:15.568Z,6053
2023-05-13T09:16:15.626Z,6049
2023-05-13T09:17:15.564Z,6048
2023-05-13T09:18:17.183Z,6051
2023-05-13T09:19:15.613Z,6031
2023-05-13T09:20:15.571Z,6020
2023-05-13T09:21:15.563Z,6024
2023-05-13T09:22:15.565Z,6021
2023-05-13T09:23:15.565Z,6023
2023-05-13T09:24:15.566Z,6027
2023-05-13T09:25:15.594Z,6005
2023-05-13T09:26:15.564Z,6041
2023-05-13T09:27:15.565Z,6053
2023-05-13T09:28:15.603Z,5981
2023-05-13T09:29:15.568Z,6090
2023-05-13T09:30:15.570Z,6090
2023-05-13T09:31:15.590Z,6197
2023-05-13T09:32:15.570Z,6247
2023-05-13T09:33:15.604Z,6247
2023-05-13T09:34:15.573Z,6393
2023-05-13T09:35:15.576Z,6393
2023-05-13T09:36:15.572Z,6501
2023-05-13T09:37:15.571Z,6546
2023-05-13T09:38:15.575Z,6349
2023-05-13T09:39:15.581Z,6299
2023-05-13T09:40:15.579Z,6464
2023-05-13T09:41:15.597Z,5987
2023-05-13T09:42:15.575Z,5360
2023-05-13T09:43:15.579Z,5372
2023-05-13T09:44:15.576Z,5372
2023-05-13T09:45:15.574Z,5370
2023-05-13T09:46:15.706Z,5421
2023-05-13T09:47:15.787Z,5378
2023-05-13T09:48:15.580Z,5308
2023-05-13T09:49:15.578Z,4916
2023-05-13T09:50:15.575Z,2886
2023-05-13T09:51:15.581Z,4467
2023-05-13T09:52:15.578Z,5274
2023-05-13T09:53:15.578Z,5266
2023-05-13T09:54:15.578Z,5248
2023-05-13T09:55:15.578Z,5244
2023-05-13T09:56:15.578Z,4751
2023-05-13T09:57:15.603Z,5282
2023-05-13T09:58:15.582Z,4307
2023-05-13T09:59:15.578Z,2138
2023-05-13T10:00:25.087Z,1925
2023-05-13T10:01:15.595Z,1908
2023-05-13T10:02:15.582Z,1908
2023-05-13T10:03:15.590Z,2829
2023-05-13T10:04:15.601Z,2829
2023-05-13T10:05:15.584Z,5399
2023-05-13T10:06:15.583Z,5343
2023-05-13T10:07:15.587Z,5244
2023-05-13T10:08:15.649Z,5182
2023-05-13T10:09:15.592Z,5180
2023-05-13T10:10:15.595Z,5211
2023-05-13T10:11:15.606Z,3779
2023-05-13T10:12:15.598Z,4068
2023-05-13T10:13:15.616Z,4464
2023-05-13T10:14:15.598Z,4678
2023-05-13T10:15:15.597Z,4678
2023-05-13T10:16:15.606Z,5226
2023-05-13T10:17:15.597Z,5254
2023-05-13T10:18:15.612Z,5287
2023-05-13T10:19:15.666Z,5319
2023-05-13T10:20:15.603Z,5349
2023-05-13T10:21:15.603Z,5398
2023-05-13T10:22:15.606Z,5461
2023-05-13T10:23:15.607Z,5448
2023-05-13T10:24:15.601Z,5571
2023-05-13T10:25:15.608Z,3010
2023-05-13T10:26:15.604Z,5198
2023-05-13T10:27:15.604Z,2730
2023-05-13T10:28:15.609Z,4476
2023-05-13T10:29:15.629Z,2995
2023-05-13T10:30:15.603Z,2400
2023-05-13T10:31:15.650Z,2400
2023-05-13T10:32:15.672Z,2010
2023-05-13T10:33:15.614Z,2010
2023-05-13T10:34:15.614Z,5415
2023-05-13T10:35:15.610Z,5415
2023-05-13T10:36:15.610Z,5444
2023-05-13T10:37:15.609Z,1954
2023-05-13T10:38:15.635Z,1933
2023-05-13T10:39:15.617Z,1935
2023-05-13T10:40:15.614Z,2042
2023-05-13T10:41:15.619Z,2055
2023-05-13T10:42:15.617Z,2049
2023-05-13T10:43:15.615Z,2134
2023-05-13T10:44:15.625Z,2182
2023-05-13T10:45:15.647Z,2182
2023-05-13T10:46:15.660Z,2307
2023-05-13T10:47:15.646Z,2367
2023-05-13T10:48:15.704Z,2367
2023-05-13T10:49:15.625Z,3342
2023-05-13T10:50:15.625Z,2296
2023-05-13T10:51:15.623Z,2228
2023-05-13T10:52:15.628Z,2212
2023-05-13T10:53:15.633Z,2212
2023-05-13T10:54:15.632Z,2212
2023-05-13T10:55:15.630Z,2368
2023-05-13T10:56:15.635Z,2368
2023-05-13T10:57:17.199Z,2368
2023-05-13T10:58:15.637Z,2568
2023-05-13T10:59:15.638Z,2519
2023-05-13T11:00:15.860Z,3733
2023-05-13T11:01:15.675Z,5932
2023-05-13T11:02:15.671Z,5812
2023-05-13T11:03:15.712Z,5765
2023-05-13T11:04:15.647Z,5813
2023-05-13T11:05:15.644Z,3856
2023-05-13T11:06:15.648Z,2798
2023-05-13T11:07:15.648Z,4185
2023-05-13T11:08:15.651Z,6442
2023-05-13T11:09:15.648Z,6083
2023-05-13T11:10:15.671Z,6304
2023-05-13T11:11:15.653Z,6323
2023-05-13T11:12:15.650Z,6184
2023-05-13T11:13:15.657Z,6172
2023-05-13T11:14:15.677Z,6066
2023-05-13T11:15:15.663Z,6121
2023-05-13T11:16:15.695Z,6121
2023-05-13T11:17:15.696Z,6121
2023-05-13T11:18:15.661Z,6081
2023-05-13T11:19:15.709Z,6104
2023-05-13T11:20:15.665Z,6073
2023-05-13T11:21:15.674Z,6107
2023-05-13T11:22:15.665Z,6136
2023-05-13T11:23:15.667Z,6136
2023-05-13T11:24:15.671Z,6136
2023-05-13T11:25:15.667Z,6136
2023-05-13T11:26:15.668Z,2549
2023-05-13T11:27:15.687Z,2675
2023-05-13T11:28:15.677Z,2676
2023-05-13T11:29:15.678Z,2628
2023-05-13T11:30:15.692Z,2572
2023-05-13T11:31:15.739Z,2546
2023-05-13T11:32:15.683Z,2819
2023-05-13T11:33:15.708Z,2866
2023-05-13T11:34:15.680Z,4167
2023-05-13T11:35:15.685Z,4624
2023-05-13T11:36:15.686Z,6139
2023-05-13T11:37:15.682Z,5326
2023-05-13T11:38:15.712Z,6566
2023-05-13T11:39:15.686Z,3304
2023-05-13T11:40:15.690Z,3023
2023-05-13T11:41:15.692Z,6963
2023-05-13T11:42:15.699Z,3865
2023-05-13T11:43:15.695Z,4668
2023-05-13T11:44:15.694Z,6031
2023-05-13T11:45:15.705Z,3582
2023-05-13T11:46:15.749Z,5511
2023-05-13T11:47:15.710Z,6132
2023-05-13T11:48:15.707Z,5848
2023-05-13T11:49:15.729Z,5544
2023-05-13T11:50:15.705Z,6340
2023-05-13T11:51:15.705Z,6362
2023-05-13T11:52:15.712Z,6377
2023-05-13T11:53:15.709Z,5929
2023-05-13T11:54:15.714Z,3998
2023-05-13T11:55:15.714Z,2790
2023-05-13T11:56:15.712Z,2562
2023-05-13T11:57:15.720Z,2515
2023-05-13T11:58:15.726Z,2559
2023-05-13T11:59:15.725Z,2674
2023-05-13T12:00:15.716Z,2845
2023-05-13T12:01:15.720Z,2915
2023-05-13T12:02:15.724Z,2819
2023-05-13T12:03:15.801Z,2737
2023-05-13T12:04:15.724Z,3913
2023-05-13T12:05:15.765Z,3697
2023-05-13T12:06:15.735Z,6210
2023-05-13T12:07:15.721Z,5483
2023-05-13T12:08:15.730Z,2477
2023-05-13T12:09:15.746Z,3542
2023-05-13T12:10:15.727Z,3167
2023-05-13T12:11:15.731Z,5474
2023-05-13T12:12:15.729Z,5732
2023-05-13T12:13:15.730Z,5704
2023-05-13T12:14:15.729Z,5703
2023-05-13T12:15:15.737Z,5749
2023-05-13T12:16:15.757Z,5727
2023-05-13T12:17:15.733Z,5749
2023-05-13T12:18:15.758Z,5706
2023-05-13T12:19:15.802Z,5710
2023-05-13T12:20:15.734Z,3908
2023-05-13T12:21:15.760Z,5739
2023-05-13T12:22:15.740Z,5780
2023-05-13T12:23:15.740Z,5844
2023-05-13T12:24:15.742Z,5907
2023-05-13T12:25:15.744Z,5943
2023-05-13T12:26:15.767Z,5939
2023-05-13T12:27:15.744Z,5916
2023-05-13T12:28:15.752Z,5907
2023-05-13T12:29:15.745Z,5855
2023-05-13T12:30:15.750Z,5869
2023-05-13T12:31:15.771Z,5840
2023-05-13T12:32:15.756Z,5840
2023-05-13T12:33:15.743Z,5825
2023-05-13T12:34:15.749Z,5957
2023-05-13T12:35:15.759Z,4495
2023-05-13T12:36:15.754Z,3752
2023-05-13T12:37:15.776Z,3897
2023-05-13T12:38:15.777Z,2854
2023-05-13T12:39:15.749Z,5695
2023-05-13T12:40:15.753Z,5685
2023-05-13T12:41:15.750Z,5724
2023-05-13T12:42:15.756Z,4419
2023-05-13T12:43:15.759Z,5777
2023-05-13T12:44:15.765Z,3270
2023-05-13T12:45:15.760Z,3392
2023-05-13T12:46:15.806Z,3709
2023-05-13T12:47:15.856Z,3227
2023-05-13T12:48:15.756Z,5559
2023-05-13T12:49:15.763Z,4620
2023-05-13T12:50:15.759Z,2282
2023-05-13T12:51:15.762Z,2079
2023-05-13T12:52:15.763Z,2008
2023-05-13T12:53:15.785Z,1953
2023-05-13T12:54:15.759Z,1914
2023-05-13T12:55:15.760Z,1868
2023-05-13T12:56:15.764Z,1795
2023-05-13T12:57:15.766Z,1784
2023-05-13T12:58:15.765Z,1750
2023-05-13T12:59:15.765Z,1713
2023-05-13T13:00:15.763Z,1687
2023-05-13T13:01:15.773Z,1642
2023-05-13T13:02:15.777Z,1586
2023-05-13T13:03:15.941Z,1522
2023-05-13T13:04:15.791Z,1522
2023-05-13T13:05:15.772Z,1522
2023-05-13T13:06:15.770Z,1522
2023-05-13T13:07:15.775Z,1235
2023-05-13T13:08:15.782Z,1145
2023-05-13T13:09:15.872Z,1093
2023-05-13T13:10:15.785Z,1052
2023-05-13T13:11:15.778Z,1027
2023-05-13T13:12:15.784Z,992
2023-05-13T13:13:15.781Z,927
2023-05-13T13:14:15.784Z,911
2023-05-13T13:15:15.789Z,911
2023-05-13T13:16:15.822Z,911
2023-05-13T13:17:15.796Z,911
2023-05-13T13:18:15.784Z,911
2023-05-13T13:19:15.793Z,873
2023-05-13T13:20:15.790Z,879
2023-05-13T13:21:15.792Z,920
2023-05-13T13:22:15.794Z,901
2023-05-13T13:23:15.792Z,933
2023-05-13T13:24:15.795Z,909
2023-05-13T13:25:15.829Z,916
2023-05-13T13:26:15.805Z,973
2023-05-13T13:27:15.802Z,951
2023-05-13T13:28:15.798Z,988
2023-05-13T13:29:15.795Z,1024
2023-05-13T13:30:15.800Z,1079
2023-05-13T13:31:15.828Z,1088
2023-05-13T13:32:15.829Z,1117
2023-05-13T13:33:15.871Z,1123
2023-05-13T13:34:15.802Z,1138
2023-05-13T13:35:15.828Z,1151
2023-05-13T13:36:15.806Z,1162
2023-05-13T13:37:15.805Z,1162
2023-05-13T13:38:15.802Z,1211
2023-05-13T13:39:15.809Z,1250
2023-05-13T13:40:15.809Z,1284
2023-05-13T13:41:15.889Z,1302
2023-05-13T13:42:15.822Z,1364
2023-05-13T13:43:15.830Z,1346
2023-05-13T13:44:15.815Z,1347